This is the latest recevied weather packets stored in our database for station/object IU7URP-30. If no packets are shown the sender has not sent any weather packets the latest 10 day(s).
| Time | Temp. | Humidity | Pressure | Rain* | Wind** | Luminosity | Snow |
|---|---|---|---|---|---|---|---|
| 1777765922 | 6.67° C | 59% | 1024.6 hPa | - | - | - | - |
| 1777765022 | 7.22° C | 56% | 1024.7 hPa | - | - | - | - |
| 1777764121 | 7.22° C | 56% | 1024.9 hPa | - | - | - | - |
| 1777763221 | 6.67° C | 58% | 1025 hPa | - | - | - | - |
| 1777762321 | 6.11° C | 60% | 1025.1 hPa | - | - | - | - |
| 1777761420 | 7.22° C | 58% | 1025.2 hPa | - | - | - | - |
| 1777760520 | 7.22° C | 56% | 1025.2 hPa | - | - | - | - |
| 1777759620 | 7.78° C | 54% | 1025.2 hPa | - | - | - | - |
| 1777758719 | 8.33° C | 52% | 1025.1 hPa | - | - | - | - |
| 1777757819 | 8.33° C | 52% | 1025 hPa | - | - | - | - |
| 1777756919 | 8.89° C | 50% | 1024.9 hPa | - | - | - | - |
| 1777756019 | 9.44° C | 48% | 1024.9 hPa | - | - | - | - |
| 1777753318 | 9.44° C | 49% | 1024.9 hPa | - | - | - | - |
| 1777752418 | 10.56° C | 48% | 1024.8 hPa | - | - | - | - |
| 1777751517 | 11.67° C | 42% | 1024.8 hPa | - | - | - | - |
| 1777750617 | 12.22° C | 40% | 1024.7 hPa | - | - | - | - |
| 1777749717 | 12.78° C | 39% | 1024.6 hPa | - | - | - | - |
| 1777748816 | 13.33° C | 38% | 1024.4 hPa | - | - | - | - |
| 1777747916 | 13.89° C | 36% | 1024.2 hPa | - | - | - | - |
| 1777747015 | 13.89° C | 36% | 1024 hPa | - | - | - | - |
| 1777746115 | 13.89° C | 36% | 1023.8 hPa | - | - | - | - |
| 1777745215 | 14.44° C | 36% | 1023.7 hPa | - | - | - | - |
| 1777744315 | 15° C | 35% | 1023.4 hPa | - | - | - | - |
| 1777743414 | 15.56° C | 33% | 1023.1 hPa | - | - | - | - |
| 1777742514 | 17.22° C | 30% | 1023 hPa | - | - | - | - |
* Rain since midnight (hover to see other rain measurements)
** Current wind speed in m/s (hover to see current wind gust speed)